Time;durP1;ratioP1;P1;durP2;ratioP2;P2;SDS_P1;SDS_P2;PMS_P1;PMS_P2;Temp;Humidity;BMP_temperature;BMP_pressure;BME280_temperature;BME280_humidity;BME280_pressure;Samples;Min_cycle;Max_cycle;Signal;HPM_P1;HPM_P2
2021/05/04 00:01:16;;;;;;;5.73;5.23;;;7.70;99.90;;;;;;5024572;28;20711;-66
2021/05/04 00:03:41;;;;;;;5.00;4.60;;;7.70;99.90;;;;;;5014564;28;20206;-65
2021/05/04 00:06:07;;;;;;;4.70;4.40;;;7.70;99.90;;;;;;5011745;28;20532;-66
2021/05/04 00:08:33;;;;;;;5.60;4.27;;;7.70;99.90;;;;;;5018703;28;20178;-65
2021/05/04 00:10:58;;;;;;;5.10;4.70;;;7.60;99.90;;;;;;5019704;28;20195;-66
2021/05/04 00:13:24;;;;;;;6.00;5.50;;;7.70;99.90;;;;;;5012622;28;20453;-66
2021/05/04 00:15:49;;;;;;;4.93;4.57;;;7.60;99.90;;;;;;5013577;28;20203;-66
2021/05/04 00:18:15;;;;;;;4.67;4.27;;;7.60;99.90;;;;;;5026006;28;20199;-66
2021/05/04 00:20:40;;;;;;;5.40;4.40;;;7.70;99.90;;;;;;5021252;28;20216;-66
2021/05/04 00:23:06;;;;;;;4.70;4.30;;;7.70;99.90;;;;;;5028412;28;20635;-65
2021/05/04 00:25:32;;;;;;;5.10;4.70;;;7.70;99.90;;;;;;5027412;28;20240;-66
2021/05/04 00:27:57;;;;;;;5.93;5.03;;;7.70;99.90;;;;;;5021556;28;20174;-66
2021/05/04 00:30:23;;;;;;;5.30;4.80;;;7.80;99.90;;;;;;5023967;28;20663;-66
2021/05/04 00:32:49;;;;;;;4.63;4.33;;;7.70;99.90;;;;;;5001690;28;20505;-66
2021/05/04 00:35:14;;;;;;;4.67;4.27;;;7.70;99.90;;;;;;5018329;28;20714;-66
2021/05/04 00:37:40;;;;;;;4.90;4.50;;;7.70;99.90;;;;;;5024421;28;20528;-66
2021/05/04 00:40:06;;;;;;;5.23;4.57;;;7.80;99.90;;;;;;5026605;28;20178;-66
2021/05/04 00:42:32;;;;;;;5.30;4.80;;;7.80;99.90;;;;;;5011836;28;20179;-66
2021/05/04 00:44:57;;;;;;;5.30;4.07;;;7.80;99.90;;;;;;5011714;28;20465;-66
2021/05/04 00:47:23;;;;;;;5.63;5.07;;;7.80;99.90;;;;;;5028219;28;20185;-66
2021/05/04 00:49:49;;;;;;;7.17;4.87;;;7.80;99.90;;;;;;5029410;28;20308;-66
2021/05/04 00:52:15;;;;;;;4.63;4.23;;;7.80;99.90;;;;;;5014252;28;20709;-66
2021/05/04 00:54:41;;;;;;;5.40;4.87;;;7.80;99.90;;;;;;5023115;28;20218;-66
2021/05/04 00:57:08;;;;;;;5.60;4.90;;;7.80;99.90;;;;;;5023282;28;20504;-65
2021/05/04 00:59:36;;;;;;;10.23;4.40;;;7.80;99.90;;;;;;5027094;28;20420;-66
2021/05/04 01:02:02;;;;;;;4.30;4.00;;;7.80;99.90;;;;;;5015596;28;20915;-66
2021/05/04 01:04:28;;;;;;;5.50;5.10;;;7.80;99.90;;;;;;5015481;28;20525;-66
2021/05/04 01:06:53;;;;;;;5.30;4.10;;;7.80;99.90;;;;;;5013372;28;20425;-66
2021/05/04 01:09:19;;;;;;;5.57;4.70;;;7.80;99.90;;;;;;5025781;28;20547;-65
2021/05/04 01:11:46;;;;;;;4.97;4.47;;;7.80;99.90;;;;;;5020084;28;20248;-65
2021/05/04 01:14:13;;;;;;;5.90;5.07;;;7.80;99.90;;;;;;4997625;28;20202;-66
2021/05/04 01:16:43;;;;;;;4.90;4.50;;;7.80;99.90;;;;;;5017173;28;20880;-66
2021/05/04 01:19:09;;;;;;;5.13;4.63;;;7.80;99.90;;;;;;5017358;28;20434;-66
2021/05/04 01:21:35;;;;;;;5.30;4.83;;;7.70;99.90;;;;;;5013834;28;20440;-65
2021/05/04 01:24:01;;;;;;;8.53;4.00;;;7.70;99.90;;;;;;5026827;28;20477;-66
2021/05/04 01:26:26;;;;;;;4.90;4.40;;;7.70;99.90;;;;;;5023766;28;20575;-66
2021/05/04 01:28:52;;;;;;;5.27;4.37;;;7.70;99.90;;;;;;5028159;28;20178;-66
2021/05/04 01:31:17;;;;;;;7.30;4.90;;;7.60;99.90;;;;;;5018749;28;20194;-66
2021/05/04 01:33:43;;;;;;;5.63;5.13;;;7.60;99.90;;;;;;5015898;28;20199;-66
2021/05/04 01:36:08;;;;;;;5.20;4.57;;;7.60;99.90;;;;;;5030632;28;20174;-66
2021/05/04 01:38:34;;;;;;;5.70;5.20;;;7.60;99.90;;;;;;5014661;28;20174;-66
2021/05/04 01:40:59;;;;;;;5.30;4.80;;;7.60;99.90;;;;;;5019607;28;20183;-66
2021/05/04 01:43:25;;;;;;;4.80;4.40;;;7.60;99.90;;;;;;5012610;28;20577;-66
2021/05/04 01:45:50;;;;;;;5.30;4.90;;;7.60;99.90;;;;;;5023064;28;20190;-66
2021/05/04 01:48:16;;;;;;;5.33;4.57;;;7.60;99.90;;;;;;5016000;28;20187;-66
2021/05/04 01:50:41;;;;;;;5.80;4.63;;;7.60;99.90;;;;;;5031423;28;20194;-66
2021/05/04 01:53:07;;;;;;;5.20;4.80;;;7.60;99.90;;;;;;5023353;28;20178;-66
2021/05/04 01:55:33;;;;;;;4.90;4.50;;;7.60;99.90;;;;;;5020409;28;20631;-66
2021/05/04 01:57:58;;;;;;;4.90;4.50;;;7.70;99.90;;;;;;5031567;28;20182;-66
2021/05/04 02:00:24;;;;;;;4.73;4.37;;;7.70;99.90;;;;;;5015792;28;20194;-66
2021/05/04 02:02:49;;;;;;;4.53;4.13;;;7.60;99.90;;;;;;5030154;28;20198;-66
2021/05/04 02:05:15;;;;;;;5.20;4.60;;;7.60;99.90;;;;;;5029530;28;20273;-66
2021/05/04 02:07:40;;;;;;;5.67;4.93;;;7.60;99.90;;;;;;5014069;28;20198;-66
2021/05/04 02:10:07;;;;;;;5.47;5.00;;;7.60;99.90;;;;;;5012847;28;20175;-66
2021/05/04 02:12:32;;;;;;;4.93;4.20;;;7.60;99.90;;;;;;5032055;28;20241;-66
2021/05/04 02:14:58;;;;;;;4.57;4.17;;;7.60;99.90;;;;;;5030940;28;20452;-66
2021/05/04 02:17:24;;;;;;;5.50;4.67;;;7.60;99.90;;;;;;5031857;28;20173;-66
2021/05/04 02:19:49;;;;;;;4.93;4.53;;;7.60;99.90;;;;;;5027199;28;20548;-66
2021/05/04 02:22:15;;;;;;;5.83;5.30;;;7.60;99.90;;;;;;5019562;28;20541;-66
2021/05/04 02:24:41;;;;;;;5.30;4.90;;;7.60;99.90;;;;;;5017045;28;20218;-66
2021/05/04 02:27:06;;;;;;;4.57;4.20;;;7.60;99.90;;;;;;5014447;28;20539;-66
2021/05/04 02:29:33;;;;;;;4.70;4.30;;;7.60;99.90;;;;;;5022606;28;20193;-66
2021/05/04 02:31:58;;;;;;;4.53;4.13;;;7.60;99.90;;;;;;5019732;28;20217;-66
2021/05/04 02:34:24;;;;;;;4.30;3.80;;;7.60;99.90;;;;;;5016648;28;20975;-66
2021/05/04 02:36:50;;;;;;;4.73;4.33;;;7.60;99.90;;;;;;5015456;28;20178;-66
2021/05/04 02:39:15;;;;;;;4.67;4.27;;;7.60;99.90;;;;;;5013651;28;20185;-66
2021/05/04 02:41:41;;;;;;;5.43;4.93;;;7.60;99.90;;;;;;5022490;28;20186;-66
2021/05/04 02:44:06;;;;;;;4.87;4.37;;;7.60;99.90;;;;;;5019933;28;20206;-66
2021/05/04 02:46:33;;;;;;;5.23;4.67;;;7.60;99.90;;;;;;5027136;28;20905;-66
2021/05/04 02:48:59;;;;;;;4.50;4.10;;;7.60;99.90;;;;;;5012790;28;20179;-66
2021/05/04 02:51:24;;;;;;;4.80;4.40;;;7.60;99.90;;;;;;5017988;28;20460;-66
2021/05/04 02:53:50;;;;;;;4.77;4.40;;;7.60;99.90;;;;;;5024362;28;20236;-66
2021/05/04 02:56:16;;;;;;;6.80;4.40;;;7.60;99.90;;;;;;5028493;28;20217;-65
2021/05/04 02:58:42;;;;;;;4.50;4.10;;;7.70;99.90;;;;;;5012113;28;20552;-66
2021/05/04 03:01:08;;;;;;;5.30;4.50;;;7.60;99.90;;;;;;5022236;28;20181;-66
2021/05/04 03:03:35;;;;;;;5.93;4.60;;;7.60;99.90;;;;;;5023144;28;20204;-66
2021/05/04 03:06:03;;;;;;;8.33;4.80;;;7.60;99.90;;;;;;5024962;28;20265;-66
2021/05/04 03:08:30;;;;;;;4.43;3.90;;;7.60;99.90;;;;;;5023682;28;20425;-66
2021/05/04 03:10:55;;;;;;;4.70;4.40;;;7.60;99.90;;;;;;5014409;28;20458;-66
2021/05/04 03:13:25;;;;;;;5.33;4.90;;;7.60;99.90;;;;;;5018313;28;20492;-66
2021/05/04 03:15:51;;;;;;;4.90;4.40;;;7.70;99.90;;;;;;5017067;28;20225;-65
2021/05/04 03:18:17;;;;;;;4.30;3.90;;;7.70;99.90;;;;;;5012245;28;20437;-65
2021/05/04 03:20:43;;;;;;;4.83;4.33;;;7.70;99.90;;;;;;5027664;28;21025;-66
2021/05/04 03:23:09;;;;;;;4.17;3.80;;;7.70;99.90;;;;;;5018866;28;20177;-66
2021/05/04 03:25:35;;;;;;;4.73;4.33;;;7.80;99.90;;;;;;5031932;28;20531;-66
2021/05/04 03:28:00;;;;;;;4.50;3.83;;;7.80;99.90;;;;;;5015838;28;20183;-66
2021/05/04 03:30:27;;;;;;;8.20;5.20;;;7.80;99.90;;;;;;5023234;28;20186;-66
2021/05/04 03:32:53;;;;;;;5.60;4.70;;;7.80;99.90;;;;;;5019350;28;20178;-66
2021/05/04 03:35:19;;;;;;;4.63;4.13;;;7.80;99.90;;;;;;5016464;28;20476;-67
2021/05/04 03:37:48;;;;;;;4.57;4.10;;;7.90;99.90;;;;;;5028046;28;20777;-66
2021/05/04 03:40:14;;;;;;;4.87;4.20;;;7.90;99.90;;;;;;5022242;28;20429;-66
2021/05/04 03:42:40;;;;;;;4.10;3.57;;;7.90;99.90;;;;;;5019182;28;20469;-66
2021/05/04 03:45:07;;;;;;;3.77;3.47;;;8.00;99.90;;;;;;5023543;28;20488;-66
2021/05/04 03:47:32;;;;;;;3.73;3.43;;;8.00;99.90;;;;;;5027380;28;20440;-66
2021/05/04 03:49:58;;;;;;;4.03;3.63;;;8.00;99.90;;;;;;5022715;28;20520;-66
2021/05/04 03:52:24;;;;;;;4.33;3.93;;;8.00;99.90;;;;;;5025097;28;20202;-67
2021/05/04 03:54:49;;;;;;;4.00;3.63;;;8.00;99.90;;;;;;5025498;28;20194;-66
2021/05/04 03:57:15;;;;;;;5.10;4.07;;;8.00;99.90;;;;;;5017723;28;20541;-66
2021/05/04 03:59:40;;;;;;;3.83;3.53;;;8.00;99.90;;;;;;5011979;28;20182;-65
2021/05/04 04:02:06;;;;;;;4.20;3.80;;;8.00;99.90;;;;;;5012351;28;20735;-66
2021/05/04 04:04:32;;;;;;;3.60;3.30;;;8.00;99.90;;;;;;5019585;28;20199;-66
2021/05/04 04:06:57;;;;;;;4.33;4.03;;;8.00;99.90;;;;;;5021048;28;20190;-66
2021/05/04 04:09:23;;;;;;;3.90;3.60;;;8.00;99.90;;;;;;5030453;28;20256;-66
2021/05/04 04:11:48;;;;;;;4.13;3.73;;;8.00;99.90;;;;;;5013167;28;20194;-67
2021/05/04 04:14:14;;;;;;;6.93;4.00;;;8.00;99.90;;;;;;5022067;28;20202;-66
2021/05/04 04:16:39;;;;;;;3.60;3.30;;;8.10;99.90;;;;;;5015448;28;20261;-65
2021/05/04 04:19:05;;;;;;;4.30;3.93;;;8.10;99.90;;;;;;5026374;28;20171;-66
2021/05/04 04:21:30;;;;;;;3.90;3.60;;;8.10;99.90;;;;;;5029481;28;20217;-67
2021/05/04 04:23:56;;;;;;;3.70;3.40;;;8.10;99.90;;;;;;5030958;28;20452;-65
2021/05/04 04:26:21;;;;;;;4.37;3.13;;;8.10;99.90;;;;;;5021329;28;20182;-66
2021/05/04 04:28:47;;;;;;;4.10;3.60;;;8.20;99.90;;;;;;5024589;28;20659;-66
2021/05/04 04:31:13;;;;;;;4.00;3.43;;;8.20;99.90;;;;;;5016507;28;20621;-66
2021/05/04 04:33:38;;;;;;;3.87;3.57;;;8.20;99.90;;;;;;5026965;28;20449;-66
2021/05/04 04:36:04;;;;;;;3.67;3.37;;;8.20;99.90;;;;;;5011358;28;20699;-66
2021/05/04 04:38:30;;;;;;;4.43;4.03;;;8.20;99.90;;;;;;5029169;28;20182;-66
2021/05/04 04:40:55;;;;;;;3.70;3.27;;;8.20;99.90;;;;;;5025643;28;20441;-67
2021/05/04 04:43:21;;;;;;;3.40;3.10;;;8.30;99.90;;;;;;5011113;28;20206;-66
2021/05/04 04:45:46;;;;;;;3.80;3.50;;;8.30;99.90;;;;;;5028603;28;20582;-66
2021/05/04 04:48:12;;;;;;;3.57;3.30;;;8.30;99.90;;;;;;5022616;28;20265;-66
2021/05/04 04:50:37;;;;;;;3.00;2.80;;;8.30;99.90;;;;;;5009935;28;20273;-66
2021/05/04 04:53:03;;;;;;;4.67;3.60;;;8.40;99.90;;;;;;5003132;28;20201;-67
2021/05/04 04:55:29;;;;;;;3.43;3.13;;;8.40;99.90;;;;;;5014917;28;20166;-66
2021/05/04 04:57:54;;;;;;;4.00;3.70;;;8.50;99.90;;;;;;5014148;28;20629;-66
2021/05/04 05:00:20;;;;;;;3.87;3.57;;;8.50;99.90;;;;;;5010246;28;20564;-66
2021/05/04 05:02:46;;;;;;;3.60;3.30;;;8.50;99.90;;;;;;5015502;28;20215;-65
2021/05/04 05:05:12;;;;;;;6.30;5.43;;;8.60;99.90;;;;;;5014223;28;20966;-66
2021/05/04 05:07:37;;;;;;;3.90;3.50;;;8.60;99.90;;;;;;5023643;28;20185;-66
2021/05/04 05:10:03;;;;;;;5.63;4.93;;;8.60;99.90;;;;;;5017779;28;20429;-67
2021/05/04 05:12:29;;;;;;;4.20;3.60;;;8.70;99.90;;;;;;5029653;28;20217;-66
2021/05/04 05:14:55;;;;;;;4.13;3.73;;;8.70;99.90;;;;;;5012725;28;20201;-65
2021/05/04 05:17:21;;;;;;;8.43;3.60;;;8.80;99.90;;;;;;5025078;28;20184;-66
2021/05/04 05:19:46;;;;;;;5.43;3.70;;;8.90;99.90;;;;;;5028179;28;20455;-66
2021/05/04 05:22:12;;;;;;;4.57;4.00;;;8.90;99.90;;;;;;5013160;28;20175;-67
2021/05/04 05:24:38;;;;;;;11.00;7.63;;;9.00;99.90;;;;;;5011031;28;20215;-67
2021/05/04 05:27:04;;;;;;;4.50;3.60;;;9.10;99.90;;;;;;5012267;28;20409;-66
2021/05/04 05:29:31;;;;;;;3.47;3.17;;;9.10;99.90;;;;;;5013042;28;20436;-67
2021/05/04 05:31:57;;;;;;;4.20;3.80;;;9.20;99.90;;;;;;5017536;28;20461;-66
2021/05/04 05:34:23;;;;;;;4.10;3.77;;;9.30;99.90;;;;;;5020972;28;20536;-66
2021/05/04 05:36:48;;;;;;;6.23;5.30;;;9.40;99.90;;;;;;5029499;28;20545;-67
2021/05/04 05:39:15;;;;;;;5.63;3.33;;;9.50;99.90;;;;;;5010016;28;20210;-66
2021/05/04 05:41:41;;;;;;;5.47;4.47;;;9.50;99.90;;;;;;5019598;28;20261;-67
2021/05/04 05:44:07;;;;;;;3.67;3.20;;;9.60;99.90;;;;;;5021823;28;20563;-66
2021/05/04 05:46:32;;;;;;;3.83;3.50;;;9.70;99.90;;;;;;5012296;28;20183;-66
2021/05/04 05:48:59;;;;;;;3.90;3.50;;;9.90;99.90;;;;;;5010788;28;20488;-66
2021/05/04 05:51:25;;;;;;;3.70;3.40;;;9.90;99.90;;;;;;5027352;28;20205;-66
2021/05/04 05:53:52;;;;;;;4.40;4.00;;;10.00;99.90;;;;;;5022117;28;20449;-66
2021/05/04 05:56:18;;;;;;;3.60;3.30;;;10.10;99.90;;;;;;5011561;28;20433;-66
2021/05/04 05:58:43;;;;;;;3.70;3.40;;;10.20;99.90;;;;;;5025972;28;20416;-66
2021/05/04 06:01:09;;;;;;;4.73;3.50;;;10.30;99.90;;;;;;5005488;28;20282;-66
2021/05/04 06:03:34;;;;;;;3.37;3.07;;;10.40;99.90;;;;;;5009398;28;20563;-67
2021/05/04 06:06:00;;;;;;;4.80;3.90;;;10.50;99.90;;;;;;5028994;28;20265;-67
2021/05/04 06:08:25;;;;;;;6.50;3.50;;;10.60;99.90;;;;;;5029379;28;20182;-66
2021/05/04 06:10:51;;;;;;;3.60;3.30;;;10.70;99.90;;;;;;5028661;28;20612;-67
2021/05/04 06:13:17;;;;;;;3.00;2.80;;;10.70;99.90;;;;;;5024912;28;20242;-66
2021/05/04 06:15:43;;;;;;;4.70;2.93;;;10.80;99.90;;;;;;5028367;28;20492;-66
2021/05/04 06:18:10;;;;;;;7.23;2.90;;;10.90;99.90;;;;;;5016766;28;20797;-67
2021/05/04 06:20:35;;;;;;;3.83;3.50;;;11.00;99.90;;;;;;5012633;28;20442;-66
2021/05/04 06:23:02;;;;;;;3.20;2.90;;;11.10;99.90;;;;;;5013187;28;20434;-67
2021/05/04 06:25:28;;;;;;;4.50;3.17;;;11.20;99.90;;;;;;5026096;28;20182;-66
2021/05/04 06:27:54;;;;;;;3.27;3.07;;;11.30;99.90;;;;;;5019707;28;20443;-66
2021/05/04 06:30:20;;;;;;;4.63;2.53;;;11.50;99.90;;;;;;5017924;28;20184;-66
2021/05/04 06:32:48;;;;;;;3.10;2.90;;;11.50;99.90;;;;;;4991127;28;20469;-67
2021/05/04 06:35:17;;;;;;;3.20;2.90;;;11.60;99.90;;;;;;4997981;28;20479;-67
2021/05/04 06:37:43;;;;;;;4.63;2.90;;;11.70;99.90;;;;;;5027950;28;20436;-68
2021/05/04 06:40:09;;;;;;;2.80;2.60;;;11.70;99.90;;;;;;5006480;28;20439;-66
2021/05/04 06:42:35;;;;;;;4.43;3.30;;;11.80;99.90;;;;;;5012420;28;20279;-65
2021/05/04 06:45:01;;;;;;;3.80;3.30;;;11.80;99.90;;;;;;5029143;28;20977;-65
2021/05/04 06:47:26;;;;;;;3.23;2.93;;;12.00;99.90;;;;;;5020820;28;20181;-65
2021/05/04 06:49:52;;;;;;;3.10;2.90;;;12.00;99.80;;;;;;5013436;28;20533;-67
2021/05/04 06:52:17;;;;;;;3.23;3.03;;;12.10;99.40;;;;;;5015668;28;20728;-66
2021/05/04 06:54:44;;;;;;;4.17;2.53;;;12.20;99.30;;;;;;5012251;28;20242;-65
2021/05/04 06:57:10;;;;;;;3.20;3.00;;;12.20;99.30;;;;;;5012680;28;20187;-66
2021/05/04 06:59:36;;;;;;;3.33;3.10;;;12.30;99.80;;;;;;5018122;28;20440;-67
2021/05/04 07:02:01;;;;;;;4.43;2.90;;;12.40;98.90;;;;;;5005804;28;20452;-67
2021/05/04 07:04:27;;;;;;;3.23;2.93;;;12.40;98.80;;;;;;5021056;28;20209;-67
2021/05/04 07:06:53;;;;;;;2.93;2.73;;;12.40;98.80;;;;;;5023630;28;20269;-67
2021/05/04 07:09:18;;;;;;;3.20;2.90;;;12.40;98.40;;;;;;5023473;28;20178;-65
2021/05/04 07:11:44;;;;;;;3.57;3.27;;;12.50;98.30;;;;;;5016250;28;20218;-65
2021/05/04 07:14:10;;;;;;;3.13;2.83;;;12.60;98.30;;;;;;5020569;28;20663;-65
2021/05/04 07:16:35;;;;;;;4.03;2.90;;;12.80;98.10;;;;;;5010418;28;20262;-65
2021/05/04 07:19:01;;;;;;;2.80;2.50;;;13.10;97.30;;;;;;5014709;28;20175;-65
2021/05/04 07:21:28;;;;;;;3.63;3.03;;;13.30;97.10;;;;;;5007384;28;20190;-65
2021/05/04 07:23:53;;;;;;;2.83;2.63;;;13.40;96.40;;;;;;5016027;28;20218;-64
2021/05/04 07:26:19;;;;;;;2.90;2.70;;;13.60;96.20;;;;;;5025539;28;20450;-63
2021/05/04 07:28:45;;;;;;;3.10;2.63;;;13.80;95.40;;;;;;5018266;28;20203;-64
2021/05/04 07:31:11;;;;;;;3.50;2.73;;;14.10;94.50;;;;;;5016142;28;20285;-65
2021/05/04 07:33:37;;;;;;;4.00;3.20;;;14.30;93.80;;;;;;5011724;28;20536;-65
2021/05/04 07:36:02;;;;;;;3.67;3.27;;;14.40;93.10;;;;;;5024342;28;20580;-64
2021/05/04 07:38:28;;;;;;;2.70;2.50;;;14.60;92.80;;;;;;5014822;28;20228;-64
2021/05/04 07:40:54;;;;;;;3.10;2.63;;;14.90;91.80;;;;;;5010922;28;20470;-64
2021/05/04 07:43:22;;;;;;;6.27;2.23;;;15.10;90.70;;;;;;5008443;28;20240;-63
2021/05/04 07:45:47;;;;;;;3.40;3.20;;;15.20;90.20;;;;;;5021669;28;20183;-63
2021/05/04 07:48:13;;;;;;;7.57;2.97;;;15.20;87.70;;;;;;5017792;28;20448;-63
2021/05/04 07:50:39;;;;;;;4.27;2.63;;;15.30;87.30;;;;;;5011554;28;20180;-63
2021/05/04 07:53:04;;;;;;;7.27;2.83;;;15.40;86.00;;;;;;5008045;28;20283;-65
2021/05/04 07:55:30;;;;;;;4.20;2.63;;;15.40;85.80;;;;;;5019864;28;20262;-65
2021/05/04 07:57:57;;;;;;;3.20;3.00;;;15.70;85.30;;;;;;5022108;28;20245;-66
2021/05/04 08:00:23;;;;;;;2.70;2.50;;;15.70;83.80;;;;;;5021419;28;20919;-66
2021/05/04 08:02:48;;;;;;;3.07;2.77;;;15.70;81.70;;;;;;5015807;28;20523;-66
2021/05/04 08:05:14;;;;;;;2.90;2.70;;;15.70;82.70;;;;;;5011228;28;20197;-67
2021/05/04 08:07:40;;;;;;;4.00;2.50;;;16.00;81.80;;;;;;5007385;28;20198;-66
2021/05/04 08:10:07;;;;;;;7.00;2.60;;;16.00;78.70;;;;;;5015909;28;20656;-66
2021/05/04 08:12:33;;;;;;;3.27;3.07;;;16.20;79.80;;;;;;5004306;28;20217;-68
2021/05/04 08:14:59;;;;;;;4.37;2.70;;;16.40;80.40;;;;;;5015710;28;20516;-67
2021/05/04 08:17:28;;;;;;;3.23;2.90;;;16.40;79.70;;;;;;5019847;28;20425;-68
2021/05/04 08:19:54;;;;;;;4.70;2.60;;;16.20;77.50;;;;;;5004824;28;20179;-68
2021/05/04 08:22:19;;;;;;;5.53;2.60;;;16.20;78.10;;;;;;5000840;28;20437;-66
2021/05/04 08:24:45;;;;;;;2.33;2.13;;;16.10;78.00;;;;;;5014802;28;20209;-66
2021/05/04 08:27:10;;;;;;;2.17;2.07;;;16.20;77.50;;;;;;5011458;28;20187;-67
2021/05/04 08:29:36;;;;;;;2.63;2.43;;;16.20;76.90;;;;;;5014745;28;20187;-67
2021/05/04 08:32:02;;;;;;;3.97;2.90;;;16.30;76.20;;;;;;5010935;28;20281;-67
2021/05/04 08:34:32;;;;;;;3.40;2.67;;;16.50;75.80;;;;;;5013296;28;20194;-66
2021/05/04 08:36:58;;;;;;;2.90;2.70;;;16.60;75.10;;;;;;5001284;28;20446;-67
2021/05/04 08:39:24;;;;;;;2.43;2.33;;;16.80;74.70;;;;;;5012827;28;20954;-67
2021/05/04 08:41:50;;;;;;;3.03;2.50;;;16.90;73.10;;;;;;5014453;28;20429;-68
2021/05/04 08:44:17;;;;;;;3.07;2.87;;;17.10;74.60;;;;;;5018071;28;20488;-67
2021/05/04 08:46:45;;;;;;;4.03;2.53;;;17.20;73.10;;;;;;5015634;28;20469;-67
2021/05/04 08:49:13;;;;;;;4.60;3.30;;;17.30;71.80;;;;;;5001957;28;20445;-67
2021/05/04 08:51:39;;;;;;;3.10;2.80;;;17.30;71.60;;;;;;5009428;28;20454;-67
2021/05/04 08:54:04;;;;;;;2.93;2.70;;;17.50;71.90;;;;;;5021140;28;20467;-66
2021/05/04 08:56:30;;;;;;;3.37;2.57;;;17.70;70.60;;;;;;5012425;28;20683;-67
2021/05/04 08:58:56;;;;;;;3.03;2.83;;;17.90;70.40;;;;;;5013959;28;20179;-67
2021/05/04 09:01:22;;;;;;;4.33;3.50;;;17.80;69.00;;;;;;5021254;28;20274;-66
2021/05/04 09:03:50;;;;;;;7.47;3.77;;;17.90;69.80;;;;;;5008817;28;20219;-66
2021/05/04 09:06:25;;;;;;;4.37;2.90;;;17.90;69.20;;;;;;5008281;28;20442;-68
2021/05/04 09:21:41;;;;;;;4.20;3.07;;;17.30;69.80;;;;;;5014152;28;20966;-67
2021/05/04 09:24:27;;;;;;;4.30;3.33;;;17.50;67.50;;;;;;5011577;28;20473;-67
2021/05/04 09:27:10;;;;;;;4.10;3.07;;;17.50;67.60;;;;;;5013921;28;20430;-67
2021/05/04 09:29:45;;;;;;;3.50;3.30;;;17.60;67.50;;;;;;5002824;28;20449;-66
2021/05/04 09:32:12;;;;;;;6.20;3.27;;;17.60;67.60;;;;;;5014326;28;20472;-66
2021/05/04 09:34:58;;;;;;;4.00;2.80;;;17.50;67.50;;;;;;5025287;28;20456;-67
2021/05/04 09:37:30;;;;;;;2.97;2.67;;;17.60;67.30;;;;;;5015835;28;20528;-66
2021/05/04 09:40:16;;;;;;;2.50;2.30;;;17.70;66.70;;;;;;5019885;28;20428;-66
2021/05/04 09:42:41;;;;;;;3.67;3.20;;;18.10;68.40;;;;;;5015898;28;20490;-67
2021/05/04 09:45:19;;;;;;;2.63;2.43;;;18.50;64.60;;;;;;5014525;28;20884;-67
2021/05/04 09:47:45;;;;;;;3.80;2.50;;;19.00;65.20;;;;;;5010455;28;20628;-67
2021/05/04 09:50:10;;;;;;;3.10;2.40;;;19.80;62.50;;;;;;5021745;28;20495;-67
2021/05/04 09:52:43;;;;;;;3.23;2.93;;;19.90;60.70;;;;;;5021773;28;20210;-66
2021/05/04 09:55:10;;;;;;;2.37;2.27;;;19.30;61.40;;;;;;5015186;28;20191;-69
2021/05/04 09:57:43;;;;;;;2.90;2.70;;;19.10;61.70;;;;;;5015539;28;20488;-66
2021/05/04 10:00:26;;;;;;;3.00;2.80;;;19.30;61.50;;;;;;5015159;28;20512;-68
2021/05/04 10:02:52;;;;;;;3.57;2.90;;;19.10;60.20;;;;;;5027799;28;20498;-67
2021/05/04 10:05:18;;;;;;;7.57;2.60;;;19.50;59.90;;;;;;5014918;28;21008;-66
2021/05/04 10:07:45;;;;;;;4.03;2.77;;;19.60;59.40;;;;;;5014439;28;20541;-67
2021/05/04 10:10:13;;;;;;;2.80;2.60;;;19.80;58.60;;;;;;5025508;28;20841;-67
2021/05/04 10:12:40;;;;;;;2.60;2.40;;;20.00;58.70;;;;;;5029449;28;20555;-70
2021/05/04 10:15:12;;;;;;;3.20;2.77;;;20.60;58.20;;;;;;5016051;28;20487;-68
2021/05/04 10:17:39;;;;;;;4.43;3.50;;;20.80;56.20;;;;;;5020940;28;20422;-67
2021/05/04 10:20:14;;;;;;;7.33;2.97;;;20.50;55.60;;;;;;5018732;28;20433;-67
2021/05/04 10:22:40;;;;;;;5.13;3.17;;;20.00;55.60;;;;;;5011238;28;20437;-67
2021/05/04 10:25:10;;;;;;;3.13;2.83;;;19.40;56.00;;;;;;5028140;28;21001;-68
2021/05/04 10:27:39;;;;;;;3.00;2.63;;;19.60;56.50;;;;;;5011838;28;20445;-67
2021/05/04 10:30:06;;;;;;;6.93;3.27;;;20.10;55.80;;;;;;5018167;28;20477;-67
2021/05/04 10:32:50;;;;;;;3.43;2.83;;;20.40;55.40;;;;;;5014345;28;20465;-67
2021/05/04 10:35:36;;;;;;;3.27;2.97;;;19.90;56.00;;;;;;5015123;28;20448;-66
2021/05/04 10:38:13;;;;;;;5.13;2.90;;;19.80;55.20;;;;;;5020503;28;20488;-67
2021/05/04 10:40:47;;;;;;;2.80;2.57;;;19.80;56.50;;;;;;5020008;28;20445;-67
2021/05/04 10:43:22;;;;;;;3.57;2.80;;;20.00;56.30;;;;;;5015599;28;20444;-68
2021/05/04 10:45:49;;;;;;;3.10;2.40;;;20.10;56.20;;;;;;5011137;28;20432;-68
2021/05/04 10:48:15;;;;;;;2.40;2.20;;;19.90;56.10;;;;;;5016935;28;20984;-67
2021/05/04 10:50:53;;;;;;;3.93;3.27;;;20.20;56.40;;;;;;5016791;28;20469;-68
2021/05/04 10:53:20;;;;;;;2.47;2.33;;;19.80;56.30;;;;;;5017332;28;20449;-67
2021/05/04 10:55:52;;;;;;;5.20;3.63;;;19.90;55.90;;;;;;5028358;28;20839;-72
2021/05/04 10:58:30;;;;;;;4.07;3.77;;;20.20;56.80;;;;;;5019825;28;20429;-69
2021/05/04 11:01:01;;;;;;;3.83;2.70;;;19.90;56.40;;;;;;5022951;28;21107;-66
2021/05/04 11:03:29;;;;;;;3.53;3.03;;;19.90;56.00;;;;;;5018204;28;20535;-67
2021/05/04 11:06:06;;;;;;;2.80;2.60;;;20.10;55.10;;;;;;5027794;28;20464;-66
2021/05/04 11:08:44;;;;;;;2.80;2.57;;;21.20;54.30;;;;;;5022465;28;20863;-66
2021/05/04 11:11:29;;;;;;;4.70;2.73;;;21.50;52.60;;;;;;5028544;28;21065;-66
2021/05/04 11:14:23;;;;;;;18.53;3.00;;;21.20;52.70;;;;;;5021512;28;20453;-66
2021/05/04 11:16:51;;;;;;;3.43;2.90;;;20.60;52.80;;;;;;5014869;28;20496;-66
2021/05/04 11:19:28;;;;;;;3.13;2.83;;;20.20;53.50;;;;;;5022590;28;20437;-67
2021/05/04 11:21:57;;;;;;;3.50;2.50;;;20.50;54.20;;;;;;5011985;28;20439;-66
2021/05/04 11:24:36;;;;;;;2.80;2.60;;;21.10;52.90;;;;;;5011362;28;20873;-66
2021/05/04 11:27:04;;;;;;;5.03;2.87;;;21.80;52.70;;;;;;5027579;28;20487;-67
2021/05/04 11:29:30;;;;;;;3.60;2.50;;;22.30;51.90;;;;;;5028928;28;20515;-65
2021/05/04 11:32:11;;;;;;;2.90;2.60;;;22.00;51.50;;;;;;5018365;28;20573;-66
2021/05/04 11:34:42;;;;;;;3.53;3.03;;;20.90;52.20;;;;;;5025095;28;20198;-67
2021/05/04 11:37:32;;;;;;;2.73;2.60;;;20.30;53.50;;;;;;5016223;28;20430;-66
2021/05/04 11:39:59;;;;;;;3.30;3.10;;;19.80;54.30;;;;;;5001528;28;20442;-65
2021/05/04 11:42:38;;;;;;;2.90;2.70;;;20.20;54.40;;;;;;5015271;28;20456;-68
2021/05/04 11:45:14;;;;;;;2.70;2.50;;;20.70;54.10;;;;;;5002682;28;20460;-64
2021/05/04 11:47:43;;;;;;;2.83;2.63;;;20.80;54.20;;;;;;5009674;28;20469;-66
2021/05/04 11:50:28;;;;;;;4.27;2.60;;;20.30;55.00;;;;;;5019340;28;20973;-66
2021/05/04 11:53:17;;;;;;;3.53;2.37;;;20.60;55.80;;;;;;5013197;28;20500;-66
2021/05/04 11:55:53;;;;;;;2.90;2.70;;;20.80;54.70;;;;;;5018972;28;20428;-66
2021/05/04 11:58:28;;;;;;;5.83;2.40;;;20.90;53.40;;;;;;5014145;28;20441;-65
2021/05/04 12:00:57;;;;;;;3.50;3.20;;;20.30;54.40;;;;;;5003850;28;20448;-65
2021/05/04 12:03:23;;;;;;;3.10;2.80;;;20.20;54.80;;;;;;5016893;28;20907;-66
2021/05/04 12:05:49;;;;;;;3.30;2.50;;;20.10;54.70;;;;;;5014825;28;20839;-65
2021/05/04 12:08:14;;;;;;;3.43;3.00;;;19.30;56.30;;;;;;5017991;28;20175;-65
2021/05/04 12:10:49;;;;;;;4.30;2.80;;;19.10;56.20;;;;;;5011511;28;20656;-67
2021/05/04 12:13:21;;;;;;;3.47;2.90;;;19.20;57.60;;;;;;5012457;28;20232;-68
2021/05/04 12:15:49;;;;;;;4.17;2.67;;;19.40;57.30;;;;;;5026390;28;20424;-69
2021/05/04 12:18:21;;;;;;;2.87;2.60;;;19.20;57.70;;;;;;5017059;28;20444;-68
2021/05/04 12:20:55;;;;;;;3.47;3.17;;;18.80;58.60;;;;;;5026369;28;20425;-68
2021/05/04 12:23:28;;;;;;;4.77;3.20;;;18.30;59.60;;;;;;5018081;28;20458;-66
2021/05/04 12:26:00;;;;;;;5.13;3.10;;;18.40;61.00;;;;;;5010484;28;20521;-68
2021/05/04 12:28:32;;;;;;;3.50;3.20;;;18.40;62.80;;;;;;4999566;28;20425;-66
2021/05/04 12:31:05;;;;;;;2.90;2.70;;;18.20;64.60;;;;;;5022387;28;20425;-66
2021/05/04 12:33:31;;;;;;;3.23;2.90;;;17.90;65.70;;;;;;5014153;28;21009;-65
2021/05/04 12:36:12;;;;;;;3.83;2.90;;;17.70;72.00;;;;;;5012006;28;20460;-65
2021/05/04 12:38:51;;;;;;;3.57;3.27;;;17.70;71.30;;;;;;4996272;28;20441;-66
2021/05/04 12:41:23;;;;;;;5.50;3.37;;;18.00;71.00;;;;;;5013920;28;20488;-66
2021/05/04 12:46:39;;;;;;;3.40;2.93;;;18.50;72.20;;;;;;5013281;28;20949;-66
2021/05/04 12:49:05;;;;;;;3.47;2.60;;;19.20;71.10;;;;;;5021649;28;20451;-64
2021/05/04 12:51:33;;;;;;;3.30;3.10;;;19.10;69.80;;;;;;5010056;28;20970;-65
2021/05/04 12:54:20;;;;;;;2.60;2.50;;;18.80;71.70;;;;;;5023007;28;20226;-65
2021/05/04 12:56:50;;;;;;;3.00;2.70;;;18.50;72.80;;;;;;5010496;28;20426;-65
2021/05/04 12:59:27;;;;;;;2.83;2.40;;;18.50;69.90;;;;;;5011671;28;20430;-65
2021/05/04 13:02:04;;;;;;;4.13;2.73;;;18.30;70.00;;;;;;5021091;28;20448;-66
2021/05/04 13:04:49;;;;;;;3.67;2.60;;;18.40;71.40;;;;;;5012027;28;20977;-65
2021/05/04 13:07:24;;;;;;;3.20;2.60;;;18.60;70.00;;;;;;5018612;28;20432;-66
2021/05/04 13:10:13;;;;;;;2.53;2.33;;;18.70;70.20;;;;;;5013313;28;20437;-66